Share

Titonka, IA

KIATHOMP4 Elev 1210 ft | 43.35 °N, 93.81 °W | Change Station

Current weather conditions updated 3 seconds ago

Partly Cloudy
Partly Cloudy
73.2 °F
Feels Like 76 °F
N
7.6
Wind Variable Wind from SE
Gusts 9.2 mph
Sunrise 6:25 AM
Sunset 8:04 PM
Moon Waning Gibbous

Tomorrow is forecast to be Much Cooler than today.

Pressure 29.93 in
Visibility 10.0 miles
Clouds Few 5000 ft
Heat Index 76 °F
Dew Point 61 °F
Humidity 65%
Rainfall 0.05 in
Snow Depth Not available.
UV 3 out of 16
Pollen 8.30 out of 12
Air Quality Not available.
Flu Activity Sporadic
METAR KFRM 202215Z 16011G19KT 150V230 10SM FEW050 25/11 A2993 RMK AO1

More Conditions Fewer Conditions

Pressure 29.93 in
Visibility 10.0 miles
Clouds Few 5000 ft
Heat Index 76 °F
Dew Point 61 °F
Humidity 65%
Rainfall 0.05 in
Snow Depth Not available.
UV 3 out of 16
Pollen 8.30 out of 12
Air Quality Not available.
Flu Activity Sporadic
METAR KFRM 202215Z 16011G19KT 150V230 10SM FEW050 25/11 A2993 RMK AO1

More Conditions Fewer Conditions

10-Day Weather Forecast

Almanac

Astronomy

Apr. 20, 2014 Rise Set
Actual Time 6:25 AM CDT 8:04 PM CDT
Civil Twilight 5:55 AM CDT 8:35 PM CDT
Nautical Twilight 5:19 AM CDT 9:11 PM CDT
Astronomical Twilight 4:40 AM CDT 9:51 PM CDT
Moon 12:48 AM CDT 10:44 AM CDT
Length of Visible Light 14h 39m
Length of Day
13h 39m
Tomorrow will be 2m 45s longer.
Waning Gibbous, 66% of the Moon is Illuminated
Today
Waning Gibbous
Apr 22
Last Quarter
Apr 29
New
May 6
First Quarter
May 14
Full

Today's Extremes

State Highs State Lows

Community

  • spring skiing mount Baker WA
    spring skiing mount Baker WA
  • Morning Sun
    Morning Sun
  • after rain
    after rain
  • Columbine
    Columbine
  • Easter Sunrise
    Easter Sunrise

WunderPhotos

Upload Photos

1,703,423 photos uploaded!

WunderBlogs® & News

Nearby

Snow Depth

Station Depth Elevation
No new snow has been reported.

Coastal Water Temperatures

Place Temperature
No Stations Reporting

Earthquake Activity

City Distance Mag. Time & Date
No recent earthquake activity has been reported nearby.
Minimum magnitude displayed is 2.5.

Nearby Weather Stations

Station Location Temp. Heat Index Dew Point Humidity Wind Precip. Elev Updated Type
Thompson, IA 73.2 °F 76 °F 61 °F 65% SE  at  7.6 mph 0.00 in / hr 1210 ft 5:31 PM CDT Rapid Fire
273 1st ST SW, Britt, IA 70.1 °F 74 °F 59 °F 69% East  at  4.0 mph 0.00 in / hr 1214 ft 5:18 PM CDT Normal
Erin Township Trading Post, Britt, IA 70.0 °F - 60 °F 71% East  at  10.0 mph 0.00 in / hr 1178 ft 5:26 PM CDT Normal
Farm Acreage, Bode, IA 75.0 °F 77 °F 61 °F 61% East  at  2.0 mph 0.00 in / hr 1130 ft 5:30 PM CDT Normal
Garner, Garner, IA 71.6 °F 76 °F 55 °F 56% East  at  9.0 mph 0.00 in / hr 1201 ft 5:28 PM CDT Normal

Show More Stations Show Fewer Stations

What do you think?

We're not finished. Please let us know what you like, what you don't like, and what you are still missing.